Time;durP1;ratioP1;P1;durP2;ratioP2;P2;SDS_P1;SDS_P2;PMS_P1;PMS_P2;Temp;Humidity;BMP_temperature;BMP_pressure;BME280_temperature;BME280_humidity;BME280_pressure;Samples;Min_cycle;Max_cycle;Signal;HPM_P1;HPM_P2
2024/03/24 00:02:15;;;;;;;1.30;0.87;;;21.90;76.70;;;;;;5011039;28;20199;-69
2024/03/24 00:04:41;;;;;;;1.93;0.90;;;21.90;76.80;;;;;;5002805;28;20592;-72
2024/03/24 00:07:07;;;;;;;2.03;0.90;;;21.80;76.70;;;;;;5011114;28;20469;-68
2024/03/24 00:09:34;;;;;;;1.10;0.83;;;21.80;76.80;;;;;;5008948;28;21435;-70
2024/03/24 00:11:59;;;;;;;1.43;1.10;;;21.80;76.90;;;;;;5010220;28;20723;-73
2024/03/24 00:14:26;;;;;;;1.47;0.93;;;21.80;77.00;;;;;;5009498;28;20451;-69
2024/03/24 00:16:53;;;;;;;2.67;0.97;;;21.70;77.00;;;;;;5006453;28;20911;-71
2024/03/24 00:19:20;;;;;;;1.93;0.90;;;21.70;77.10;;;;;;5009093;28;20470;-73
2024/03/24 00:21:45;;;;;;;1.23;0.73;;;21.70;77.30;;;;;;5004777;28;20457;-73
2024/03/24 00:24:12;;;;;;;1.93;1.00;;;21.60;77.40;;;;;;5006871;28;20458;-70
2024/03/24 00:26:38;;;;;;;2.00;1.10;;;21.60;77.70;;;;;;5007862;28;20237;-66
2024/03/24 00:29:05;;;;;;;1.27;0.90;;;21.50;77.70;;;;;;5006386;28;20451;-70
2024/03/24 00:31:30;;;;;;;1.10;0.80;;;21.50;77.80;;;;;;5010265;28;20199;-71
2024/03/24 00:33:58;;;;;;;1.07;0.80;;;21.50;77.90;;;;;;5007847;28;20455;-66
2024/03/24 00:36:24;;;;;;;1.87;1.07;;;21.50;77.80;;;;;;5006810;28;20211;-73
2024/03/24 00:38:51;;;;;;;1.50;0.80;;;21.50;77.90;;;;;;5005900;28;20490;-68
2024/03/24 00:41:16;;;;;;;1.20;0.90;;;21.50;77.90;;;;;;5008852;28;20284;-69
2024/03/24 00:43:43;;;;;;;2.70;1.00;;;21.50;78.10;;;;;;5008947;28;20541;-71
2024/03/24 00:46:09;;;;;;;1.73;0.87;;;21.40;78.00;;;;;;5003619;28;20203;-67
2024/03/24 00:48:35;;;;;;;2.13;0.97;;;21.40;78.10;;;;;;5007191;28;20856;-69
2024/03/24 00:51:03;;;;;;;1.30;1.07;;;21.40;78.20;;;;;;5005989;28;20211;-74
2024/03/24 00:53:30;;;;;;;1.50;0.80;;;21.30;78.30;;;;;;5005719;28;20465;-66
2024/03/24 00:55:56;;;;;;;1.13;1.00;;;21.30;78.60;;;;;;5007152;28;20469;-68
2024/03/24 00:58:23;;;;;;;1.30;0.70;;;21.30;78.70;;;;;;5009107;28;20500;-70
2024/03/24 01:00:49;;;;;;;1.20;0.80;;;21.30;78.80;;;;;;5007005;28;20520;-69
2024/03/24 01:03:16;;;;;;;1.27;0.80;;;21.30;78.90;;;;;;5009724;28;20455;-72
2024/03/24 01:05:42;;;;;;;1.40;0.90;;;21.30;78.90;;;;;;5004964;28;20520;-72
2024/03/24 01:08:10;;;;;;;1.40;1.00;;;21.20;78.90;;;;;;5004954;28;21440;-71
2024/03/24 01:10:37;;;;;;;1.58;0.90;;;21.20;78.90;;;;;;4999797;28;21276;-72
2024/03/24 01:13:04;;;;;;;3.50;1.20;;;21.20;79.00;;;;;;5005233;28;20783;-68
2024/03/24 01:15:31;;;;;;;1.10;0.80;;;21.20;79.10;;;;;;5007536;28;20461;-69
2024/03/24 01:17:57;;;;;;;1.00;0.70;;;21.10;79.10;;;;;;5010292;28;20335;-72
2024/03/24 01:20:23;;;;;;;1.50;1.00;;;21.10;79.10;;;;;;5008471;28;20203;-71
2024/03/24 01:22:50;;;;;;;1.50;1.00;;;21.10;79.30;;;;;;4998759;28;21359;-72
2024/03/24 01:25:17;;;;;;;1.10;0.88;;;21.10;79.50;;;;;;5007001;28;20458;-68
2024/03/24 01:27:44;;;;;;;1.75;1.00;;;21.10;79.60;;;;;;5007249;28;20281;-69
2024/03/24 01:30:11;;;;;;;1.33;0.77;;;21.00;79.40;;;;;;5005580;28;20291;-72
2024/03/24 01:32:38;;;;;;;1.50;1.08;;;21.00;79.60;;;;;;5006803;28;20450;-67
2024/03/24 01:35:05;;;;;;;1.13;0.90;;;21.00;79.60;;;;;;5006013;28;20212;-67
2024/03/24 01:37:31;;;;;;;1.07;0.80;;;21.00;79.60;;;;;;5003674;28;20458;-73
2024/03/24 01:39:58;;;;;;;2.17;1.10;;;21.00;79.70;;;;;;5007097;28;20499;-72
2024/03/24 01:42:25;;;;;;;1.10;0.80;;;21.00;79.80;;;;;;5008900;28;20203;-69
2024/03/24 01:44:51;;;;;;;1.23;0.80;;;20.90;79.80;;;;;;5010675;28;20750;-67
2024/03/24 01:47:17;;;;;;;1.40;0.90;;;20.90;79.80;;;;;;5008689;28;20205;-71
2024/03/24 01:49:44;;;;;;;1.00;0.80;;;20.90;79.80;;;;;;5010575;28;20450;-72
2024/03/24 01:52:12;;;;;;;0.95;0.70;;;20.90;80.10;;;;;;5009447;28;20463;-72
2024/03/24 01:54:39;;;;;;;1.13;0.90;;;20.90;80.30;;;;;;5005156;28;20208;-68
2024/03/24 01:57:05;;;;;;;0.90;0.73;;;20.90;80.40;;;;;;5006235;28;20464;-71
2024/03/24 01:59:33;;;;;;;1.30;0.80;;;20.80;80.40;;;;;;5005519;28;20211;-73
2024/03/24 02:01:59;;;;;;;1.48;0.90;;;20.80;80.30;;;;;;5010297;28;20199;-69
2024/03/24 02:04:25;;;;;;;1.47;1.00;;;20.80;80.40;;;;;;5011441;28;20568;-71
2024/03/24 02:06:51;;;;;;;1.02;0.70;;;20.80;80.40;;;;;;5007074;28;20201;-69
2024/03/24 02:09:18;;;;;;;1.50;1.40;;;20.80;80.50;;;;;;5006339;28;20196;-73
2024/03/24 02:11:45;;;;;;;1.35;1.10;;;20.80;80.60;;;;;;5008956;28;20278;-72
2024/03/24 02:14:11;;;;;;;1.00;0.70;;;20.80;80.60;;;;;;5012410;28;20203;-71
2024/03/24 02:16:39;;;;;;;1.00;0.80;;;20.80;80.60;;;;;;5009571;28;20236;-72
2024/03/24 02:19:05;;;;;;;1.20;0.77;;;20.70;80.50;;;;;;5012222;28;20234;-73
2024/03/24 02:21:31;;;;;;;1.90;1.15;;;20.70;80.70;;;;;;5005730;28;20196;-71
2024/03/24 02:23:59;;;;;;;1.73;0.90;;;20.70;81.10;;;;;;5005655;28;20794;-71
2024/03/24 02:26:25;;;;;;;1.10;0.80;;;20.70;81.00;;;;;;5006022;28;20486;-72
2024/03/24 02:28:55;;;;;;;1.60;1.03;;;20.70;81.00;;;;;;5003605;28;20195;-72
2024/03/24 02:31:21;;;;;;;1.33;1.02;;;20.70;81.00;;;;;;5009320;28;20196;-69
2024/03/24 02:33:48;;;;;;;2.03;0.90;;;20.70;81.10;;;;;;5006649;28;20199;-74
2024/03/24 02:36:13;;;;;;;1.20;0.90;;;20.60;81.00;;;;;;4998274;28;20203;-69
2024/03/24 02:38:40;;;;;;;1.47;1.10;;;20.60;81.00;;;;;;5009715;28;20230;-72
2024/03/24 02:41:07;;;;;;;1.30;0.90;;;20.60;81.00;;;;;;5004206;28;20211;-71
2024/03/24 02:43:36;;;;;;;1.08;0.95;;;20.60;82.00;;;;;;5006222;28;20200;-69
2024/03/24 02:46:02;;;;;;;1.25;0.70;;;20.60;81.30;;;;;;5006364;28;20228;-69
2024/03/24 02:48:28;;;;;;;1.23;0.90;;;20.60;81.40;;;;;;5006635;28;20278;-71
2024/03/24 02:50:54;;;;;;;1.38;0.90;;;20.60;81.50;;;;;;5008332;28;21055;-71
2024/03/24 02:53:21;;;;;;;1.47;0.90;;;20.60;81.50;;;;;;5006875;28;20280;-66
2024/03/24 02:55:47;;;;;;;1.17;0.88;;;20.50;81.40;;;;;;5003826;28;20199;-67
2024/03/24 02:58:16;;;;;;;1.30;1.00;;;20.50;81.40;;;;;;5009400;28;20199;-66
2024/03/24 03:00:42;;;;;;;1.77;0.95;;;20.50;81.40;;;;;;5006637;28;20659;-73
2024/03/24 03:03:08;;;;;;;1.10;0.83;;;20.50;81.40;;;;;;5009781;28;20207;-72
2024/03/24 03:05:34;;;;;;;1.75;1.25;;;20.50;81.40;;;;;;5007115;28;20482;-68
2024/03/24 03:08:02;;;;;;;1.10;0.80;;;20.50;81.50;;;;;;5005443;28;20192;-68
2024/03/24 03:10:29;;;;;;;1.50;1.02;;;20.50;81.60;;;;;;5005487;28;20303;-72
2024/03/24 03:12:56;;;;;;;2.13;0.82;;;20.40;81.60;;;;;;5007480;28;21173;-69
2024/03/24 03:15:24;;;;;;;1.02;0.77;;;20.40;81.70;;;;;;5009058;28;20208;-71
2024/03/24 03:17:50;;;;;;;1.10;0.80;;;20.40;81.90;;;;;;5008764;28;20208;-70
2024/03/24 03:20:16;;;;;;;1.50;1.00;;;20.40;81.90;;;;;;5006868;28;20900;-68
2024/03/24 03:22:43;;;;;;;1.10;0.80;;;20.40;81.90;;;;;;5004358;28;20195;-68
2024/03/24 03:25:09;;;;;;;1.30;0.90;;;20.40;81.90;;;;;;5006692;28;20216;-69
2024/03/24 03:27:35;;;;;;;0.90;0.70;;;20.40;81.90;;;;;;5001684;28;20201;-73
2024/03/24 03:30:03;;;;;;;1.63;0.73;;;20.40;82.80;;;;;;5007081;28;20620;-73
2024/03/24 03:32:31;;;;;;;1.65;0.82;;;20.40;82.00;;;;;;5012527;28;20894;-69
2024/03/24 03:34:56;;;;;;;1.10;0.80;;;20.40;82.00;;;;;;5012306;28;20214;-74
2024/03/24 03:37:23;;;;;;;1.50;0.90;;;20.40;82.10;;;;;;5009936;28;20651;-71
2024/03/24 03:39:49;;;;;;;1.20;0.90;;;20.30;82.00;;;;;;5009775;28;20513;-74
2024/03/24 03:42:16;;;;;;;1.10;0.90;;;20.30;82.10;;;;;;5011573;28;20280;-74
2024/03/24 03:44:42;;;;;;;1.00;0.70;;;20.30;82.30;;;;;;5006919;28;21069;-67
2024/03/24 03:47:09;;;;;;;1.00;0.80;;;20.30;82.30;;;;;;5005820;28;20203;-68
2024/03/24 03:49:36;;;;;;;0.98;0.70;;;20.30;82.30;;;;;;5002253;28;20875;-68
2024/03/24 03:52:03;;;;;;;1.17;0.98;;;20.30;82.30;;;;;;5007266;28;20204;-73
2024/03/24 03:54:31;;;;;;;1.13;1.00;;;20.30;82.30;;;;;;5007195;28;20216;-74
2024/03/24 03:56:58;;;;;;;1.27;0.80;;;20.30;82.30;;;;;;5008999;28;20264;-69
2024/03/24 03:59:24;;;;;;;1.30;0.90;;;20.30;82.50;;;;;;5004073;28;20219;-69
2024/03/24 04:01:51;;;;;;;1.10;0.80;;;20.30;82.40;;;;;;5000796;28;20200;-70
2024/03/24 04:04:16;;;;;;;0.90;0.70;;;20.30;82.40;;;;;;5005309;28;20473;-70
2024/03/24 04:06:44;;;;;;;1.30;0.90;;;20.20;82.40;;;;;;5002068;28;20197;-71
2024/03/24 04:09:16;;;;;;;1.30;0.90;;;20.20;82.50;;;;;;4997518;28;20200;-73
2024/03/24 04:11:42;;;;;;;1.20;0.90;;;20.20;82.60;;;;;;5002986;28;21003;-70
2024/03/24 04:14:08;;;;;;;1.83;1.17;;;20.20;82.60;;;;;;5009018;28;20196;-67
2024/03/24 04:16:35;;;;;;;1.93;0.87;;;20.20;82.50;;;;;;5007141;28;20211;-69
2024/03/24 04:19:01;;;;;;;1.10;0.85;;;20.20;82.50;;;;;;5006601;28;20230;-68
2024/03/24 04:21:27;;;;;;;2.70;1.23;;;20.20;82.50;;;;;;5007164;28;20207;-72
2024/03/24 04:23:54;;;;;;;1.20;0.80;;;20.20;82.50;;;;;;5007816;28;20204;-74
2024/03/24 04:26:21;;;;;;;1.10;0.90;;;20.20;82.60;;;;;;5000447;28;20259;-69
2024/03/24 04:28:47;;;;;;;1.45;0.80;;;20.20;82.60;;;;;;5005511;28;20335;-72
2024/03/24 04:31:13;;;;;;;1.17;0.80;;;20.20;82.60;;;;;;5006892;28;20200;-69
2024/03/24 04:33:39;;;;;;;1.33;0.80;;;20.10;82.60;;;;;;5008751;28;20203;-71
2024/03/24 04:36:07;;;;;;;1.03;0.90;;;20.10;82.60;;;;;;5005375;28;20778;-73
2024/03/24 04:38:33;;;;;;;1.00;0.88;;;20.10;82.70;;;;;;5005731;28;20204;-72
2024/03/24 04:41:01;;;;;;;1.00;0.80;;;20.10;82.80;;;;;;5007295;28;20208;-69
2024/03/24 04:43:28;;;;;;;1.30;0.90;;;20.10;82.80;;;;;;5005075;28;20208;-71
2024/03/24 04:45:53;;;;;;;1.30;1.10;;;20.10;82.70;;;;;;5004191;28;20211;-69
2024/03/24 04:48:21;;;;;;;1.20;0.93;;;20.10;82.70;;;;;;5008257;28;20199;-69
2024/03/24 04:50:47;;;;;;;1.08;0.80;;;20.10;82.70;;;;;;5008220;28;20211;-69
2024/03/24 04:53:14;;;;;;;1.73;0.90;;;20.10;82.80;;;;;;4997918;28;20195;-69
2024/03/24 04:55:41;;;;;;;1.33;0.90;;;20.10;82.80;;;;;;5005312;28;20207;-72
2024/03/24 04:58:09;;;;;;;1.00;0.70;;;20.10;82.90;;;;;;5009274;28;20192;-72
2024/03/24 05:00:35;;;;;;;1.10;0.73;;;20.10;82.90;;;;;;5006832;28;20219;-72
2024/03/24 05:03:01;;;;;;;1.43;1.00;;;20.00;83.40;;;;;;5005649;28;20196;-69
2024/03/24 05:05:27;;;;;;;1.08;0.90;;;20.10;83.10;;;;;;5001283;28;20210;-68
2024/03/24 05:07:54;;;;;;;1.50;1.00;;;20.10;83.10;;;;;;5006921;28;20199;-68
2024/03/24 05:10:20;;;;;;;1.35;0.77;;;20.10;83.00;;;;;;5004605;28;20193;-74
2024/03/24 05:12:47;;;;;;;1.10;0.80;;;20.10;82.90;;;;;;5005406;28;20713;-72
2024/03/24 05:15:14;;;;;;;1.30;0.80;;;20.00;82.80;;;;;;5003518;28;22200;-68
2024/03/24 05:17:42;;;;;;;1.60;0.88;;;20.00;82.90;;;;;;5007618;28;20661;-73
2024/03/24 05:20:09;;;;;;;1.13;0.88;;;20.00;82.90;;;;;;5002644;28;20224;-70
2024/03/24 05:22:36;;;;;;;1.40;1.00;;;20.00;83.10;;;;;;5003926;28;20227;-71
2024/03/24 05:25:01;;;;;;;1.08;0.95;;;20.00;83.00;;;;;;5007181;28;20199;-68
2024/03/24 05:27:30;;;;;;;1.30;0.97;;;20.00;83.00;;;;;;5005233;28;20646;-73
2024/03/24 05:29:55;;;;;;;1.00;0.80;;;20.00;83.10;;;;;;5005268;28;20196;-70
2024/03/24 05:32:23;;;;;;;0.90;0.70;;;20.00;83.20;;;;;;5007046;28;20196;-69
2024/03/24 05:34:49;;;;;;;1.83;1.20;;;20.00;83.10;;;;;;5003832;28;20208;-69
2024/03/24 05:37:16;;;;;;;1.10;1.00;;;20.00;83.20;;;;;;5008053;28;20206;-69
2024/03/24 05:39:41;;;;;;;1.00;0.70;;;20.00;83.10;;;;;;5000821;28;20674;-71
2024/03/24 05:42:08;;;;;;;0.90;0.80;;;20.00;83.10;;;;;;5005618;28;20200;-71
2024/03/24 05:44:34;;;;;;;1.20;0.93;;;20.00;83.10;;;;;;5009469;28;20207;-69
2024/03/24 05:47:01;;;;;;;1.40;1.10;;;20.00;83.20;;;;;;5005165;28;20199;-71
2024/03/24 05:49:28;;;;;;;1.75;0.85;;;19.90;83.10;;;;;;5005839;28;20228;-70
2024/03/24 05:51:57;;;;;;;1.50;0.90;;;19.90;83.10;;;;;;5007814;28;21270;-73
2024/03/24 05:54:23;;;;;;;1.17;0.93;;;19.90;83.10;;;;;;5002781;28;20206;-72
2024/03/24 05:56:51;;;;;;;1.27;0.90;;;19.90;83.20;;;;;;5002829;28;21067;-73
2024/03/24 05:59:17;;;;;;;1.00;0.80;;;19.90;83.20;;;;;;5004269;28;20228;-68
2024/03/24 06:01:44;;;;;;;1.02;0.82;;;19.90;83.10;;;;;;5003883;28;20198;-69
2024/03/24 06:04:10;;;;;;;1.38;1.10;;;20.00;83.20;;;;;;5004350;28;20575;-73
2024/03/24 06:06:38;;;;;;;1.03;0.90;;;19.90;83.00;;;;;;5002096;28;20203;-68
2024/03/24 06:09:04;;;;;;;1.10;0.88;;;19.90;83.10;;;;;;5002889;28;20183;-73
2024/03/24 06:11:30;;;;;;;0.90;0.80;;;19.90;83.10;;;;;;5001642;28;20288;-73
2024/03/24 06:13:56;;;;;;;1.23;0.90;;;19.90;83.20;;;;;;5008102;28;20497;-69
2024/03/24 06:16:23;;;;;;;1.23;1.00;;;19.90;83.20;;;;;;5004668;28;20196;-74
2024/03/24 06:18:48;;;;;;;1.10;0.70;;;19.90;83.20;;;;;;5005695;28;20199;-73
2024/03/24 06:21:15;;;;;;;1.00;0.60;;;19.90;83.20;;;;;;5000633;28;20203;-68
2024/03/24 06:23:42;;;;;;;1.02;0.93;;;19.90;83.30;;;;;;5000427;28;20210;-71
2024/03/24 06:26:09;;;;;;;1.10;0.90;;;19.90;83.30;;;;;;5003524;28;20227;-71
2024/03/24 06:28:35;;;;;;;0.90;0.60;;;19.90;83.10;;;;;;5001749;28;20199;-71
2024/03/24 06:31:01;;;;;;;1.30;0.97;;;19.90;83.10;;;;;;5003532;28;20187;-69
2024/03/24 06:33:27;;;;;;;1.20;0.88;;;19.90;83.10;;;;;;5000342;28;20200;-67
2024/03/24 06:35:54;;;;;;;1.50;0.80;;;19.90;83.20;;;;;;5004671;28;20669;-69
2024/03/24 06:38:19;;;;;;;1.00;0.80;;;19.90;83.20;;;;;;5010062;28;20191;-67
2024/03/24 06:40:47;;;;;;;1.40;1.00;;;19.90;83.30;;;;;;5004494;28;20220;-73
2024/03/24 06:43:19;;;;;;;1.52;1.00;;;19.90;83.10;;;;;;5008528;28;20261;-73
2024/03/24 06:45:48;;;;;;;1.10;1.00;;;19.90;83.30;;;;;;5007362;28;20199;-71
2024/03/24 06:48:14;;;;;;;1.00;0.80;;;19.90;82.80;;;;;;5006242;28;20199;-73
2024/03/24 06:50:41;;;;;;;2.00;1.00;;;19.90;82.90;;;;;;5002868;28;20191;-73
2024/03/24 06:53:07;;;;;;;1.33;0.90;;;19.90;82.80;;;;;;4996892;28;21257;-73
2024/03/24 06:55:34;;;;;;;1.10;0.80;;;19.90;82.20;;;;;;5001993;28;20188;-70
2024/03/24 06:58:01;;;;;;;1.40;1.23;;;19.90;82.20;;;;;;5006972;28;20203;-75
2024/03/24 07:00:28;;;;;;;1.10;0.85;;;19.90;81.80;;;;;;5005329;28;20346;-76
2024/03/24 07:02:53;;;;;;;1.20;0.90;;;19.90;81.80;;;;;;5002525;28;20231;-72
2024/03/24 07:05:20;;;;;;;1.10;0.90;;;19.90;82.00;;;;;;5001998;28;20339;-72
2024/03/24 07:07:47;;;;;;;1.30;0.90;;;19.80;82.10;;;;;;5000811;28;20208;-75
2024/03/24 07:10:13;;;;;;;1.35;1.25;;;19.80;82.50;;;;;;5009037;28;20200;-77
2024/03/24 07:12:39;;;;;;;1.80;1.20;;;19.80;82.80;;;;;;5010944;28;20207;-74
2024/03/24 07:15:09;;;;;;;1.77;0.83;;;19.70;82.80;;;;;;5010546;28;20211;-71
2024/03/24 07:17:34;;;;;;;1.50;1.00;;;19.80;82.80;;;;;;5009252;28;20457;-75
2024/03/24 07:20:01;;;;;;;1.37;1.07;;;19.70;82.60;;;;;;5011269;28;20223;-70
2024/03/24 07:22:27;;;;;;;1.25;1.00;;;19.70;82.50;;;;;;5006855;28;20204;-69
2024/03/24 07:24:53;;;;;;;1.40;1.00;;;19.70;82.40;;;;;;5008694;28;20225;-72
2024/03/24 07:27:19;;;;;;;2.90;1.05;;;19.70;82.50;;;;;;5008712;28;20555;-74
2024/03/24 07:29:46;;;;;;;1.30;1.00;;;19.70;82.40;;;;;;5009826;28;20211;-73
2024/03/24 07:32:13;;;;;;;1.33;1.23;;;19.70;82.30;;;;;;5011181;28;20994;-72
2024/03/24 07:34:41;;;;;;;1.20;0.70;;;19.70;82.00;;;;;;5008811;28;20628;-74
2024/03/24 07:37:07;;;;;;;2.65;1.00;;;19.70;82.50;;;;;;4998525;28;20281;-71
2024/03/24 07:39:34;;;;;;;2.43;1.00;;;19.80;82.00;;;;;;5007182;28;20772;-70
2024/03/24 07:41:59;;;;;;;2.22;0.95;;;20.00;81.50;;;;;;5004833;28;20211;-75
2024/03/24 07:44:26;;;;;;;2.10;1.00;;;20.10;81.20;;;;;;5012400;28;20560;-68
2024/03/24 07:46:52;;;;;;;1.63;1.10;;;20.20;80.70;;;;;;5008498;28;20211;-69
2024/03/24 07:49:20;;;;;;;1.13;1.00;;;20.20;80.70;;;;;;5009765;28;20187;-73
2024/03/24 07:51:45;;;;;;;1.10;0.90;;;20.20;80.90;;;;;;5007104;28;20195;-70
2024/03/24 07:54:12;;;;;;;1.40;1.10;;;20.20;80.70;;;;;;5008324;28;20213;-73
2024/03/24 07:56:38;;;;;;;1.10;0.80;;;20.20;80.50;;;;;;5010187;28;20679;-72
2024/03/24 07:59:04;;;;;;;1.10;0.80;;;20.30;80.40;;;;;;5002190;28;20200;-71
2024/03/24 08:01:30;;;;;;;1.30;0.88;;;20.30;80.10;;;;;;5004833;28;20224;-73
2024/03/24 08:03:57;;;;;;;1.77;0.83;;;20.40;80.20;;;;;;5005815;28;20200;-73
2024/03/24 08:06:24;;;;;;;1.20;1.00;;;20.40;80.10;;;;;;5001899;28;20209;-74
2024/03/24 08:08:51;;;;;;;2.17;1.10;;;20.40;79.80;;;;;;5003372;28;20200;-72
2024/03/24 08:11:16;;;;;;;1.20;0.82;;;20.40;79.80;;;;;;5005340;28;20200;-74
2024/03/24 08:13:43;;;;;;;1.23;0.80;;;20.50;79.70;;;;;;5008391;28;20196;-72
2024/03/24 08:16:09;;;;;;;1.10;0.80;;;20.50;79.40;;;;;;5008626;28;20242;-75
2024/03/24 08:18:37;;;;;;;1.20;0.80;;;20.50;79.30;;;;;;5010272;28;20204;-75
2024/03/24 08:21:04;;;;;;;1.20;0.95;;;20.50;79.30;;;;;;5003491;28;20221;-74
2024/03/24 08:23:32;;;;;;;1.20;1.00;;;20.60;79.30;;;;;;5010406;28;20222;-71
2024/03/24 08:25:58;;;;;;;1.13;0.80;;;20.60;79.10;;;;;;5009309;28;20203;-73
2024/03/24 08:28:24;;;;;;;1.10;0.80;;;20.60;78.90;;;;;;5008344;28;20212;-71
2024/03/24 08:30:50;;;;;;;1.00;0.80;;;20.60;78.80;;;;;;5007575;28;20878;-69
2024/03/24 08:33:17;;;;;;;1.30;1.03;;;20.70;79.00;;;;;;5010926;28;20458;-68
2024/03/24 08:35:42;;;;;;;1.13;0.83;;;20.70;78.90;;;;;;5005510;28;20214;-72
2024/03/24 08:38:09;;;;;;;1.00;0.80;;;20.70;78.90;;;;;;5005171;28;20521;-68
2024/03/24 08:40:36;;;;;;;1.13;0.80;;;20.70;78.80;;;;;;5006902;28;20230;-72
2024/03/24 08:43:03;;;;;;;1.10;0.83;;;20.80;78.80;;;;;;5006995;28;20462;-73
2024/03/24 08:45:29;;;;;;;1.20;0.80;;;20.80;78.70;;;;;;5007913;28;20491;-73
2024/03/24 08:47:55;;;;;;;1.30;0.90;;;20.80;78.50;;;;;;5006422;28;20451;-71
2024/03/24 08:50:21;;;;;;;1.47;0.87;;;20.90;79.30;;;;;;5007486;28;20667;-68
2024/03/24 08:52:48;;;;;;;1.07;0.90;;;20.90;78.40;;;;;;4998581;28;20459;-71
2024/03/24 08:55:14;;;;;;;1.30;0.90;;;20.90;78.40;;;;;;5007443;28;20878;-70
2024/03/24 08:57:42;;;;;;;1.07;0.77;;;20.90;78.40;;;;;;5006813;28;20451;-69
2024/03/24 09:00:09;;;;;;;1.50;0.90;;;20.90;78.20;;;;;;5007206;28;20258;-73
2024/03/24 09:02:36;;;;;;;1.00;0.80;;;21.00;78.10;;;;;;5008713;28;21441;-68
2024/03/24 09:05:01;;;;;;;1.60;0.90;;;21.10;78.60;;;;;;5002203;28;20462;-71
2024/03/24 09:07:28;;;;;;;1.10;0.87;;;21.00;77.60;;;;;;5003605;28;20447;-72
2024/03/24 09:09:54;;;;;;;0.90;0.70;;;21.10;77.80;;;;;;5007291;28;20462;-68
2024/03/24 09:12:21;;;;;;;1.60;0.90;;;21.10;77.50;;;;;;5007688;28;21283;-70
2024/03/24 09:14:48;;;;;;;1.00;0.80;;;21.10;77.50;;;;;;5008622;28;20211;-77
2024/03/24 09:17:14;;;;;;;1.20;1.03;;;21.10;77.10;;;;;;5006032;28;20961;-73
2024/03/24 09:19:40;;;;;;;1.10;0.80;;;21.10;77.00;;;;;;5008766;28;20463;-74
2024/03/24 09:22:07;;;;;;;1.20;0.97;;;21.10;76.70;;;;;;5003550;28;20501;-72
2024/03/24 09:24:33;;;;;;;1.00;0.80;;;21.10;76.10;;;;;;5008500;28;20988;-72
2024/03/24 09:27:02;;;;;;;1.30;1.10;;;21.10;75.70;;;;;;5005829;28;20454;-77
2024/03/24 09:29:28;;;;;;;1.00;0.80;;;21.10;75.80;;;;;;5008801;28;20520;-74
2024/03/24 09:31:57;;;;;;;1.57;0.90;;;21.20;75.70;;;;;;5006236;28;20466;-73
2024/03/24 09:34:23;;;;;;;1.10;0.80;;;21.20;75.40;;;;;;5007555;28;20200;-74
2024/03/24 09:36:51;;;;;;;1.73;1.00;;;21.20;75.20;;;;;;5007373;28;20459;-71
2024/03/24 09:39:17;;;;;;;1.00;0.70;;;21.30;75.20;;;;;;4999658;28;20218;-73
2024/03/24 09:41:47;;;;;;;2.00;1.10;;;21.30;74.80;;;;;;5005498;28;20490;-73
2024/03/24 09:44:15;;;;;;;1.10;0.77;;;21.30;74.60;;;;;;5009030;28;20454;-72
2024/03/24 09:46:43;;;;;;;1.20;1.00;;;21.30;74.50;;;;;;5006803;28;20698;-75
2024/03/24 09:49:12;;;;;;;1.80;1.10;;;21.40;74.30;;;;;;5008444;28;20455;-72
2024/03/24 09:51:40;;;;;;;1.40;1.13;;;21.40;74.20;;;;;;5006629;28;20454;-71
2024/03/24 09:54:09;;;;;;;0.97;0.80;;;21.40;74.20;;;;;;5007799;28;20471;-75
2024/03/24 09:56:37;;;;;;;0.90;0.70;;;21.40;73.90;;;;;;5009487;28;20453;-78
2024/03/24 09:59:04;;;;;;;1.70;1.13;;;21.40;73.70;;;;;;5008248;28;21047;-80
2024/03/24 10:01:31;;;;;;;1.10;0.80;;;21.50;73.70;;;;;;5004092;28;20482;-73
2024/03/24 10:03:57;;;;;;;1.40;0.90;;;21.50;73.40;;;;;;5005481;28;20545;-72
2024/03/24 10:06:26;;;;;;;1.50;1.00;;;21.50;73.30;;;;;;5004389;28;20553;-79
2024/03/24 10:08:52;;;;;;;1.67;0.80;;;21.60;73.50;;;;;;5002728;28;20470;-74
2024/03/24 10:11:29;;;;;;;1.10;1.00;;;21.50;72.90;;;;;;5009024;28;20504;-73
2024/03/24 10:13:55;;;;;;;1.93;0.90;;;21.70;75.60;;;;;;5008184;28;20946;-75
2024/03/24 10:16:22;;;;;;;1.50;1.20;;;21.70;76.50;;;;;;5002069;28;21010;-73
2024/03/24 10:18:48;;;;;;;1.27;0.93;;;21.90;79.40;;;;;;5005478;28;20478;-72
2024/03/24 10:21:15;;;;;;;2.07;0.93;;;21.80;78.80;;;;;;5000683;28;20566;-73
2024/03/24 10:23:43;;;;;;;1.50;1.07;;;21.90;80.60;;;;;;5002615;28;20451;-76
2024/03/24 10:26:10;;;;;;;1.40;0.90;;;21.80;79.10;;;;;;5007620;28;21155;-76
2024/03/24 10:28:35;;;;;;;2.60;0.80;;;22.00;80.10;;;;;;5006091;28;20466;-77
2024/03/24 10:31:06;;;;;;;1.50;1.07;;;22.10;79.80;;;;;;5007831;28;20446;-76
2024/03/24 10:33:33;;;;;;;1.40;1.00;;;22.00;79.50;;;;;;5007688;28;20470;-76
2024/03/24 10:36:00;;;;;;;1.93;1.00;;;21.90;80.60;;;;;;5002236;28;20463;-74
2024/03/24 10:38:27;;;;;;;1.83;0.90;;;22.00;81.40;;;;;;5005612;28;20549;-75
2024/03/24 10:40:57;;;;;;;1.13;1.00;;;21.80;81.60;;;;;;5002894;28;20504;-73
2024/03/24 10:43:23;;;;;;;1.87;1.27;;;;;;;;;;5008713;28;20458;-72
2024/03/24 10:45:51;;;;;;;1.60;1.50;;;21.90;93.40;;;;;;5009715;28;20454;-76
2024/03/24 10:48:19;;;;;;;2.03;1.00;;;;;;;;;;5013512;28;20461;-75
2024/03/24 10:50:46;;;;;;;1.53;1.20;;;21.90;91.30;;;;;;5006566;28;20503;-72
2024/03/24 10:53:16;;;;;;;2.63;1.30;;;21.90;92.50;;;;;;5007874;28;20469;-71
2024/03/24 10:55:43;;;;;;;1.50;1.30;;;21.90;93.30;;;;;;5010610;28;20456;-74
2024/03/24 10:58:11;;;;;;;3.00;1.47;;;;;;;;;;5012167;28;20466;-76
2024/03/24 11:00:38;;;;;;;5.27;1.30;;;22.00;69.40;;;;;;5011951;28;20516;-76
2024/03/24 11:03:08;;;;;;;2.13;1.20;;;22.00;71.20;;;;;;5009575;28;20454;-75
2024/03/24 11:05:37;;;;;;;2.80;1.30;;;22.10;71.70;;;;;;5010983;28;20965;-76
2024/03/24 11:08:05;;;;;;;1.60;1.20;;;22.20;72.30;;;;;;4996875;28;20963;-73
2024/03/24 11:10:32;;;;;;;1.10;1.00;;;22.20;71.90;;;;;;5002446;28;20454;-76
2024/03/24 11:12:58;;;;;;;1.93;1.00;;;22.30;72.30;;;;;;5008306;28;20470;-73
2024/03/24 11:15:28;;;;;;;2.60;1.87;;;22.40;71.50;;;;;;5001765;28;20457;-77
2024/03/24 11:17:54;;;;;;;1.77;1.10;;;22.40;71.00;;;;;;5004066;28;20934;-76
2024/03/24 11:20:21;;;;;;;2.67;1.40;;;22.50;71.10;;;;;;5004415;28;20481;-73
2024/03/24 11:22:48;;;;;;;1.10;0.97;;;;;;;;;;5005595;28;20203;-73
2024/03/24 11:25:16;;;;;;;1.23;0.90;;;22.50;69.20;;;;;;5010146;28;20450;-75
2024/03/24 11:27:42;;;;;;;1.40;1.20;;;22.50;69.80;;;;;;5010042;28;20527;-78
2024/03/24 11:30:12;;;;;;;1.43;1.20;;;22.60;69.80;;;;;;5001552;28;20467;-71
2024/03/24 11:32:54;;;;;;;1.40;1.10;;;22.50;69.60;;;;;;4998711;28;20469;-72
2024/03/24 11:35:26;;;;;;;1.30;1.10;;;22.50;69.60;;;;;;5007870;28;21479;-71
2024/03/24 11:37:53;;;;;;;1.47;0.93;;;22.50;69.80;;;;;;5007715;28;21408;-75
2024/03/24 11:40:23;;;;;;;2.20;1.20;;;;;;;;;;5008430;28;20601;-70
2024/03/24 11:42:51;;;;;;;1.57;1.10;;;22.50;69.00;;;;;;5009720;28;20469;-72
2024/03/24 11:45:28;;;;;;;1.40;1.00;;;22.50;69.80;;;;;;5007755;28;20462;-73
2024/03/24 11:48:31;;;;;;;1.50;1.40;;;22.50;69.80;;;;;;5006275;28;20838;-75
2024/03/24 11:51:01;;;;;;;1.30;1.20;;;22.50;69.80;;;;;;5009613;28;20995;-73
2024/03/24 11:53:30;;;;;;;1.10;0.90;;;22.50;69.80;;;;;;5010101;28;20498;-71
2024/03/24 11:55:57;;;;;;;1.60;0.90;;;22.40;69.70;;;;;;5011250;28;20466;-73
2024/03/24 11:58:25;;;;;;;1.20;1.00;;;22.50;69.80;;;;;;5004033;28;20445;-75
2024/03/24 12:00:51;;;;;;;1.10;1.00;;;22.50;69.80;;;;;;5008571;28;20870;-72
2024/03/24 12:03:19;;;;;;;1.67;1.47;;;22.40;69.60;;;;;;5009945;28;20443;-76
2024/03/24 12:05:45;;;;;;;1.10;1.00;;;22.40;69.60;;;;;;5009879;28;20459;-72
2024/03/24 12:08:12;;;;;;;1.10;0.90;;;22.40;69.60;;;;;;5007595;28;20514;-72
2024/03/24 12:10:39;;;;;;;1.80;1.10;;;22.50;69.60;;;;;;5010819;28;20471;-73
2024/03/24 12:13:05;;;;;;;1.40;1.00;;;22.50;69.60;;;;;;5011726;28;20458;-70
2024/03/24 12:15:31;;;;;;;2.10;0.97;;;22.50;69.50;;;;;;5011663;28;20462;-70
2024/03/24 12:18:09;;;;;;;1.83;1.40;;;22.50;69.50;;;;;;5010178;28;20464;-76
2024/03/24 12:20:37;;;;;;;1.50;1.33;;;22.60;69.50;;;;;;5007325;28;20733;-73
2024/03/24 12:23:03;;;;;;;1.30;1.10;;;22.60;69.40;;;;;;5008211;28;20816;-74
2024/03/24 12:25:30;;;;;;;1.13;0.90;;;22.60;69.30;;;;;;5007753;28;20466;-71
2024/03/24 12:27:56;;;;;;;1.33;1.00;;;22.60;69.20;;;;;;5005022;28;20466;-72
2024/03/24 12:30:23;;;;;;;1.40;0.87;;;22.70;69.20;;;;;;5008947;28;20453;-71
2024/03/24 12:32:50;;;;;;;1.90;1.07;;;22.70;69.10;;;;;;5005404;28;20550;-76
2024/03/24 12:35:18;;;;;;;1.63;1.30;;;22.80;69.00;;;;;;5008413;28;20451;-72
2024/03/24 12:37:46;;;;;;;1.10;0.80;;;22.80;68.90;;;;;;5008257;28;20540;-74
2024/03/24 12:40:17;;;;;;;1.67;0.90;;;22.80;69.00;;;;;;5009109;28;21334;-75
2024/03/24 12:42:43;;;;;;;1.40;1.07;;;22.90;68.90;;;;;;5005879;28;20495;-76
2024/03/24 12:45:10;;;;;;;1.43;0.90;;;22.90;68.80;;;;;;5007019;28;20558;-75
2024/03/24 12:47:36;;;;;;;1.20;0.90;;;22.90;68.70;;;;;;5005411;28;20494;-72